Arcola, MO (65603)

6:10 AM CST on December 27, 2014 (GMT -0600)
Greenfield West (WOHSN) | Change Station
CLOSE
Current Station
Personal Weather Station
Location: Greenfield, MO
Elevation: 1066 ft
Nearby Weather Stations

Elev 1066 ft 37.42 °N, 93.85 °W | Updated 1 minute ago

Overcast
Overcast
36.0 °F
Feels Like 33 °F
N
3.7
Wind Variable Wind from NW

Today
High -- | Low -- °F
--% Chance of Precip.
Yesterday
High -- | Low -- °F
Precip. -- in
7:28 AM 5:04 PM
Waxing Crescent, 36% visible
Pressure 30.13 in
Visibility 4.0 miles
Clouds Overcast 500 ft
Windchill 33 °F
Dew Point 35 °F
Humidity 95%
Rainfall 0.02 in
Snow Depth Not available.
UV 0 out of 12
Pollen 5.50 out of 12
Air Quality Not available.
Flu Activity Not available.
METAR KSGF 271152Z 30010KT 4SM -RA BR OVC005 04/03 A3012 RMK AO2 SLP202 P0002 60002 70003 T00390028 10100 20039 53028

More Conditions Fewer Conditions

Pressure 30.13 in
Visibility 4.0 miles
Clouds Overcast 500 ft
Windchill 33 °F
Dew Point 35 °F
Humidity 95%
Rainfall 0.02 in
Snow Depth Not available.
UV 0 out of 12
Pollen 5.50 out of 12
Air Quality Not available.
Flu Activity Not available.
METAR KSGF 271152Z 30010KT 4SM -RA BR OVC005 04/03 A3012 RMK AO2 SLP202 P0002 60002 70003 T00390028 10100 20039 53028

More Conditions Fewer Conditions

10-Day Weather Forecast

Almanac

Astronomy

Dec. 27, 2014 Rise Set
Actual Time
Civil Twilight
Nautical Twilight
Astronomical Twilight
Moon
Length of Visible Light
Length of Day
Tomorrow will be .
, % of the Moon is Illuminated

Today's Extremes

State Highs State Lows

Community

WunderPhotos

Upload Photos

1,780,885 photos uploaded!

WunderBlogs® & News

Nearby

Air Quality

  Air Quality AQ Index Pollutant
Not available.

Snow Depth

Station Depth Elevation

Earthquake Activity

City Distance Mag. Time & Date
Minimum magnitude displayed is 2.5.

Coastal Water Temperatures

Place Temperature

Nearby Weather Stations